Time;durP1;ratioP1;P1;durP2;ratioP2;P2;SDS_P1;SDS_P2;PMS_P1;PMS_P2;Temp;Humidity;BMP_temperature;BMP_pressure;BME280_temperature;BME280_humidity;BME280_pressure;Samples;Min_cycle;Max_cycle;Signal;HPM_P1;HPM_P2
2022/04/25 00:01:34;;;;;;;8.00;5.40;;;8.30;82.90;;;;;;5075642;28;20020;-13
2022/04/25 00:04:01;;;;;;;9.27;6.57;;;8.30;83.00;;;;;;5075080;28;20032;-14
2022/04/25 00:06:26;;;;;;;8.68;5.88;;;8.30;82.90;;;;;;5075472;28;20051;-13
2022/04/25 00:08:52;;;;;;;9.10;6.30;;;8.30;83.00;;;;;;5075086;28;20028;-13
2022/04/25 00:11:19;;;;;;;17.50;10.20;;;8.30;83.10;;;;;;5074952;28;20036;-13
2022/04/25 00:13:45;;;;;;;10.15;6.53;;;8.30;83.30;;;;;;5075216;28;20076;-13
2022/04/25 00:16:11;;;;;;;10.80;6.55;;;8.20;83.00;;;;;;5074715;28;20610;-13
2022/04/25 00:18:37;;;;;;;10.48;6.85;;;8.30;83.10;;;;;;5074662;28;20099;-14
2022/04/25 00:21:03;;;;;;;11.85;7.90;;;8.20;83.20;;;;;;5075035;28;20025;-14
2022/04/25 00:23:29;;;;;;;9.60;6.28;;;8.30;83.30;;;;;;5074620;28;20025;-14
2022/04/25 00:25:56;;;;;;;9.48;5.65;;;8.30;83.30;;;;;;5073559;28;20385;-12
2022/04/25 00:28:22;;;;;;;12.13;7.30;;;8.30;83.30;;;;;;5074779;28;20037;-13
2022/04/25 00:30:48;;;;;;;8.95;5.40;;;8.30;83.50;;;;;;5074780;28;20111;-13
2022/04/25 00:33:14;;;;;;;8.25;5.25;;;8.20;83.30;;;;;;5074525;28;20467;-12
2022/04/25 00:35:41;;;;;;;9.65;5.35;;;8.20;83.20;;;;;;5074434;28;20060;-12
2022/04/25 00:38:11;;;;;;;19.35;10.82;;;8.20;83.20;;;;;;5074828;28;20032;-13
2022/04/25 00:40:37;;;;;;;15.65;8.63;;;8.10;83.30;;;;;;5074401;28;20103;-14
2022/04/25 00:43:03;;;;;;;11.00;7.72;;;8.10;83.30;;;;;;5074298;28;20029;-13
2022/04/25 00:45:35;;;;;;;10.15;6.72;;;8.00;83.50;;;;;;5074563;28;20034;-13
2022/04/25 00:48:02;;;;;;;9.40;6.45;;;7.90;83.70;;;;;;5074215;28;20024;-14
2022/04/25 00:50:29;;;;;;;8.52;5.75;;;7.90;83.70;;;;;;5073977;28;20032;-12
2022/04/25 00:52:55;;;;;;;13.68;8.45;;;7.90;83.90;;;;;;5074441;28;20020;-13
2022/04/25 00:55:21;;;;;;;11.73;7.85;;;7.90;84.20;;;;;;5072804;28;20025;-13
2022/04/25 00:57:48;;;;;;;7.78;4.80;;;7.90;84.20;;;;;;5074217;28;20028;-13
2022/04/25 01:00:14;;;;;;;8.07;5.35;;;8.00;84.00;;;;;;5074086;28;20380;-13
2022/04/25 01:02:41;;;;;;;12.18;6.30;;;7.90;83.80;;;;;;5073820;28;20472;-13
2022/04/25 01:05:08;;;;;;;9.77;7.00;;;7.90;83.90;;;;;;5073864;28;20473;-13
2022/04/25 01:07:37;;;;;;;8.60;5.55;;;7.90;84.10;;;;;;5074141;28;20021;-13
2022/04/25 01:10:08;;;;;;;12.02;8.15;;;7.90;84.10;;;;;;5074075;28;20036;-13
2022/04/25 01:12:34;;;;;;;12.23;8.20;;;7.90;84.10;;;;;;5073828;28;20488;-14
2022/04/25 01:15:02;;;;;;;12.50;8.30;;;7.90;84.10;;;;;;5073515;28;20048;-13
2022/04/25 01:17:28;;;;;;;11.02;7.53;;;7.80;84.10;;;;;;5073793;28;20107;-13
2022/04/25 01:19:54;;;;;;;9.18;6.47;;;7.80;84.30;;;;;;5074508;28;20078;-14
2022/04/25 01:22:31;;;;;;;9.95;5.90;;;7.70;84.20;;;;;;5073362;28;20032;-13
2022/04/25 01:27:42;;;;;;;10.25;6.95;;;7.70;84.20;;;;;;5073940;28;20093;-14
2022/04/25 01:30:09;;;;;;;9.20;6.43;;;7.70;84.20;;;;;;5073547;28;20025;-14
2022/04/25 01:32:39;;;;;;;8.13;5.68;;;7.70;84.60;;;;;;5073746;28;20040;-14
2022/04/25 01:35:06;;;;;;;13.70;7.10;;;7.70;84.30;;;;;;5073771;28;20093;-13
2022/04/25 01:37:32;;;;;;;10.57;6.93;;;7.70;84.50;;;;;;5073317;28;20071;-13
2022/04/25 01:39:58;;;;;;;7.85;5.43;;;7.60;84.50;;;;;;5073328;28;20436;-13
2022/04/25 01:42:24;;;;;;;8.05;5.70;;;7.60;84.30;;;;;;5073366;28;20488;-13
2022/04/25 01:44:51;;;;;;;8.98;6.28;;;7.60;84.50;;;;;;5073275;28;20476;-13
2022/04/25 01:47:18;;;;;;;11.38;7.97;;;7.60;84.50;;;;;;5071964;28;20024;-13
2022/04/25 01:49:44;;;;;;;10.57;6.95;;;7.60;84.40;;;;;;5073219;28;20388;-13
2022/04/25 01:52:34;;;;;;;10.43;6.72;;;7.50;84.50;;;;;;5073530;28;20453;-13
2022/04/25 01:55:02;;;;;;;8.07;5.72;;;7.40;84.60;;;;;;5073193;28;20052;-13
2022/04/25 01:57:28;;;;;;;9.77;5.78;;;7.40;84.70;;;;;;5073394;28;20024;-12
2022/04/25 01:59:55;;;;;;;11.95;7.53;;;7.40;84.60;;;;;;5073705;28;20028;-14
2022/04/25 02:02:22;;;;;;;11.00;5.70;;;7.40;84.90;;;;;;5072766;28;20495;-14
2022/04/25 02:04:49;;;;;;;13.77;8.23;;;7.40;84.80;;;;;;5073016;28;20395;-14
2022/04/25 02:07:15;;;;;;;8.63;6.18;;;7.40;84.80;;;;;;5072997;28;20017;-14
2022/04/25 02:09:41;;;;;;;12.48;9.00;;;7.40;84.90;;;;;;5073281;28;20032;-14
2022/04/25 02:12:08;;;;;;;10.52;7.18;;;7.40;84.80;;;;;;5073157;28;20484;-13
2022/04/25 02:14:34;;;;;;;12.05;6.88;;;7.40;84.80;;;;;;5072766;28;20044;-13
2022/04/25 02:17:00;;;;;;;8.63;5.78;;;7.30;84.80;;;;;;5072741;28;20036;-14
2022/04/25 02:19:27;;;;;;;6.80;5.03;;;7.30;84.80;;;;;;5073214;28;20032;-12
2022/04/25 02:21:54;;;;;;;9.27;6.00;;;7.40;84.60;;;;;;5073126;28;20025;-12
2022/04/25 02:24:20;;;;;;;8.38;6.05;;;7.30;84.70;;;;;;5072978;28;20111;-12
2022/04/25 02:26:48;;;;;;;10.27;6.80;;;7.40;84.70;;;;;;5073428;28;20025;-14
2022/04/25 02:29:14;;;;;;;7.68;5.03;;;7.40;84.90;;;;;;5073187;28;20024;-13
2022/04/25 02:31:40;;;;;;;9.18;6.32;;;7.50;84.90;;;;;;5073125;28;20066;-12
2022/04/25 02:34:06;;;;;;;8.13;5.78;;;7.50;84.90;;;;;;5073350;28;20108;-14
2022/04/25 02:36:32;;;;;;;9.43;6.90;;;7.50;84.90;;;;;;5072705;28;20155;-13
2022/04/25 02:38:58;;;;;;;7.63;4.88;;;7.60;84.90;;;;;;5072721;28;20038;-14
2022/04/25 02:41:24;;;;;;;8.05;5.80;;;7.60;84.90;;;;;;5073006;28;20053;-14
2022/04/25 02:43:50;;;;;;;7.18;5.10;;;7.60;84.70;;;;;;5072923;28;20045;-13
2022/04/25 02:46:17;;;;;;;14.05;9.00;;;7.70;84.90;;;;;;5072500;28;20061;-13
2022/04/25 02:48:46;;;;;;;10.90;7.50;;;7.70;85.00;;;;;;5072586;28;20021;-13
2022/04/25 02:51:13;;;;;;;8.48;6.45;;;7.80;85.30;;;;;;5076439;28;20476;-13
2022/04/25 02:53:40;;;;;;;9.93;6.45;;;7.80;85.40;;;;;;5076436;28;20028;-13
2022/04/25 02:56:06;;;;;;;15.18;9.68;;;7.80;85.20;;;;;;5075006;28;20029;-13
2022/04/25 02:58:34;;;;;;;13.98;10.10;;;7.90;86.10;;;;;;5076124;28;20035;-14
2022/04/25 03:01:01;;;;;;;13.55;9.27;;;7.90;85.80;;;;;;5076786;28;20107;-14
2022/04/25 03:03:27;;;;;;;10.40;7.30;;;7.90;85.80;;;;;;5076172;28;20029;-13
2022/04/25 03:05:55;;;;;;;12.50;7.40;;;8.00;85.60;;;;;;5076493;28;20028;-13
2022/04/25 03:08:23;;;;;;;10.27;6.55;;;8.00;85.30;;;;;;5076213;28;20039;-14
2022/04/25 03:10:52;;;;;;;12.10;8.55;;;8.00;85.00;;;;;;5076098;28;20491;-13
2022/04/25 03:13:20;;;;;;;8.38;6.32;;;8.00;84.90;;;;;;5075844;28;20059;-13
2022/04/25 03:15:47;;;;;;;15.50;11.00;;;8.00;85.00;;;;;;5077202;28;20132;-13
2022/04/25 03:18:16;;;;;;;13.27;8.93;;;8.00;85.10;;;;;;5076421;28;20025;-15
2022/04/25 03:20:44;;;;;;;12.45;7.82;;;8.00;84.80;;;;;;5075805;28;20111;-14
2022/04/25 03:23:10;;;;;;;15.77;10.65;;;8.00;84.90;;;;;;5076238;28;20071;-14
2022/04/25 03:25:37;;;;;;;15.20;11.10;;;7.90;85.50;;;;;;5076032;28;20492;-14
2022/04/25 03:28:03;;;;;;;19.40;11.75;;;7.90;85.90;;;;;;5076070;28;20024;-13
2022/04/25 03:30:29;;;;;;;19.35;12.63;;;7.90;86.00;;;;;;5075690;28;20476;-14
2022/04/25 03:32:58;;;;;;;21.20;13.00;;;7.90;86.40;;;;;;5075571;28;20518;-14
2022/04/25 03:35:25;;;;;;;19.48;12.25;;;8.00;86.20;;;;;;5075760;28;20126;-14
2022/04/25 03:37:51;;;;;;;25.20;13.57;;;8.00;86.60;;;;;;5075767;28;20028;-14
2022/04/25 03:40:18;;;;;;;27.77;16.45;;;8.00;86.30;;;;;;5075477;28;20012;-14
2022/04/25 03:42:44;;;;;;;27.35;15.02;;;8.10;86.90;;;;;;5075824;28;20028;-14
2022/04/25 03:45:12;;;;;;;27.73;16.15;;;8.10;87.40;;;;;;5075786;28;20056;-13
2022/04/25 03:47:39;;;;;;;27.05;14.38;;;8.10;87.40;;;;;;5075567;28;20100;-14
2022/04/25 03:50:08;;;;;;;27.25;15.23;;;8.20;88.20;;;;;;5075813;28;20029;-13
2022/04/25 03:52:35;;;;;;;30.88;17.55;;;8.20;88.00;;;;;;5075131;28;20016;-13
2022/04/25 03:57:51;;;;;;;41.17;22.65;;;8.30;87.70;;;;;;5063949;28;20071;-14
2022/04/25 04:00:18;;;;;;;34.60;19.25;;;8.40;88.60;;;;;;5074789;28;20112;-14
2022/04/25 04:02:44;;;;;;;25.58;16.23;;;8.40;88.60;;;;;;5075095;28;20017;-13
2022/04/25 04:05:11;;;;;;;29.95;15.93;;;8.40;88.00;;;;;;5075328;28;20020;-13
2022/04/25 04:07:38;;;;;;;34.97;19.98;;;8.50;87.80;;;;;;5075065;28;20024;-14
2022/04/25 04:10:05;;;;;;;39.17;20.75;;;8.50;88.30;;;;;;5075341;28;20059;-13
2022/04/25 04:12:32;;;;;;;42.67;23.50;;;8.60;89.20;;;;;;5074732;28;20027;-14
2022/04/25 04:15:03;;;;;;;34.28;18.60;;;8.60;88.40;;;;;;5074886;28;20044;-13
2022/04/25 04:17:29;;;;;;;26.77;15.70;;;8.70;88.20;;;;;;5074996;28;20404;-14
2022/04/25 04:19:55;;;;;;;34.15;18.35;;;8.70;87.30;;;;;;5074897;28;20021;-14
2022/04/25 04:22:25;;;;;;;29.77;18.92;;;8.80;87.60;;;;;;5073268;28;20174;-13
2022/04/25 04:24:52;;;;;;;20.52;13.82;;;8.90;87.30;;;;;;5074692;28;20029;-14
2022/04/25 04:27:18;;;;;;;19.60;13.32;;;8.90;86.90;;;;;;5074903;28;20121;-13
2022/04/25 04:29:44;;;;;;;24.50;15.05;;;8.90;86.90;;;;;;5074630;28;20032;-13
2022/04/25 04:32:13;;;;;;;21.42;14.23;;;9.10;87.20;;;;;;5074808;28;20029;-14
2022/04/25 04:34:39;;;;;;;29.95;17.65;;;9.10;87.20;;;;;;5074802;28;20120;-14
2022/04/25 04:37:06;;;;;;;19.05;12.85;;;9.20;87.40;;;;;;5073183;28;20115;-14
2022/04/25 04:39:33;;;;;;;19.63;12.77;;;9.20;87.20;;;;;;5074397;28;20553;-13
2022/04/25 04:41:59;;;;;;;28.30;16.80;;;9.30;86.70;;;;;;5074592;28;20388;-13
2022/04/25 04:44:31;;;;;;;21.27;14.27;;;9.40;86.60;;;;;;5074446;28;20025;-14
2022/04/25 04:46:57;;;;;;;26.25;17.27;;;9.40;87.10;;;;;;5074746;28;20024;-13
2022/04/25 04:49:23;;;;;;;28.35;17.10;;;9.50;87.10;;;;;;5074143;28;20021;-13
2022/04/25 04:51:49;;;;;;;23.65;15.35;;;9.60;88.00;;;;;;5074284;28;20085;-14
2022/04/25 04:54:15;;;;;;;32.45;20.75;;;9.60;87.90;;;;;;5074699;28;20508;-13
2022/04/25 04:56:41;;;;;;;22.73;14.48;;;9.70;88.30;;;;;;5074290;28;20104;-14
2022/04/25 04:59:07;;;;;;;23.38;15.20;;;9.80;87.70;;;;;;5074345;28;20099;-13
2022/04/25 05:01:33;;;;;;;21.90;13.55;;;9.80;87.30;;;;;;5074395;28;20415;-15
2022/04/25 05:03:59;;;;;;;17.58;12.80;;;9.90;87.00;;;;;;5074235;28;20032;-12
2022/04/25 05:06:27;;;;;;;19.33;12.23;;;9.90;86.60;;;;;;5073628;28;20503;-14
2022/04/25 05:08:54;;;;;;;19.85;11.75;;;10.00;86.60;;;;;;5073809;28;20029;-14
2022/04/25 05:11:20;;;;;;;24.05;15.25;;;10.10;86.70;;;;;;5073623;28;20373;-14
2022/04/25 05:13:46;;;;;;;25.58;14.60;;;10.10;87.00;;;;;;5073544;28;20048;-13
2022/04/25 05:16:12;;;;;;;22.35;13.75;;;10.20;87.90;;;;;;5073288;28;20036;-17
2022/04/25 05:18:38;;;;;;;29.52;16.40;;;10.20;87.50;;;;;;5074010;28;20040;-13
2022/04/25 05:21:05;;;;;;;24.90;15.50;;;10.30;87.60;;;;;;5074207;28;20393;-14
2022/04/25 05:23:31;;;;;;;24.58;14.68;;;10.40;87.70;;;;;;5073606;28;20053;-14
2022/04/25 05:25:58;;;;;;;18.48;11.90;;;10.40;87.80;;;;;;5073524;28;20024;-13
2022/04/25 05:28:29;;;;;;;20.75;11.88;;;10.50;87.20;;;;;;5073303;28;20021;-13
2022/04/25 05:30:54;;;;;;;21.05;11.45;;;10.60;87.10;;;;;;5073482;28;20400;-13
2022/04/25 05:33:20;;;;;;;20.75;13.27;;;10.60;86.90;;;;;;5072139;28;20484;-13
2022/04/25 05:35:46;;;;;;;20.73;11.45;;;10.80;86.90;;;;;;5073738;28;20024;-12
2022/04/25 05:38:12;;;;;;;22.35;13.55;;;10.90;86.80;;;;;;5073403;28;20388;-13
2022/04/25 05:40:40;;;;;;;23.58;13.75;;;10.90;86.70;;;;;;5073236;28;20099;-13
2022/04/25 05:43:07;;;;;;;28.20;16.98;;;11.00;86.80;;;;;;5073605;28;20036;-14
2022/04/25 05:45:34;;;;;;;23.75;14.27;;;11.10;86.60;;;;;;5073284;28;20496;-14
2022/04/25 05:48:01;;;;;;;25.17;15.43;;;11.20;86.50;;;;;;5073131;28;20032;-15
2022/04/25 05:53:13;;;;;;;19.88;13.20;;;11.30;86.20;;;;;;5073830;28;20036;-14
2022/04/25 05:55:41;;;;;;;26.73;15.40;;;11.30;86.70;;;;;;5073132;28;20512;-13
2022/04/25 05:58:08;;;;;;;23.48;13.57;;;11.30;86.90;;;;;;5073340;28;20021;-13
2022/04/25 06:00:35;;;;;;;22.35;12.43;;;11.40;87.00;;;;;;5073253;28;20021;-13
2022/04/25 06:03:02;;;;;;;23.67;14.68;;;11.40;86.80;;;;;;5071807;28;20119;-13
2022/04/25 06:05:28;;;;;;;29.55;16.15;;;11.40;86.60;;;;;;5073353;28;20035;-13
2022/04/25 06:07:54;;;;;;;27.20;14.55;;;11.40;87.10;;;;;;5073008;28;20357;-12
2022/04/25 06:10:22;;;;;;;23.13;12.52;;;11.50;86.90;;;;;;5073386;28;20464;-13
2022/04/25 06:12:53;;;;;;;28.92;17.00;;;11.50;86.60;;;;;;5072820;28;20470;-14
2022/04/25 06:15:27;;;;;;;23.85;11.95;;;11.70;86.80;;;;;;5073006;28;20508;-13
2022/04/25 06:17:55;;;;;;;19.88;11.60;;;11.70;86.70;;;;;;5073032;28;20124;-13
2022/04/25 06:20:24;;;;;;;23.63;14.10;;;11.80;86.30;;;;;;5072685;28;20024;-14
2022/04/25 06:22:58;;;;;;;28.33;14.00;;;11.90;86.40;;;;;;5072882;28;20089;-14
2022/04/25 06:25:26;;;;;;;25.67;13.75;;;11.90;86.30;;;;;;5075881;28;20480;-13
2022/04/25 06:27:53;;;;;;;31.08;15.55;;;12.00;86.10;;;;;;5077142;28;20456;-14
2022/04/25 06:30:23;;;;;;;29.73;15.63;;;12.20;86.30;;;;;;5076968;28;20039;-13
2022/04/25 06:32:51;;;;;;;30.17;15.25;;;12.20;86.80;;;;;;5077128;28;20028;-14
2022/04/25 06:35:17;;;;;;;28.83;14.02;;;12.40;86.10;;;;;;5077563;28;20028;-13
2022/04/25 06:37:42;;;;;;;32.55;16.65;;;12.50;85.80;;;;;;5076976;28;20051;-14
2022/04/25 06:40:09;;;;;;;35.17;16.20;;;12.60;86.00;;;;;;5076732;28;20511;-14
2022/04/25 06:42:35;;;;;;;28.60;15.32;;;12.70;85.40;;;;;;5076722;28;20021;-13
2022/04/25 06:45:01;;;;;;;28.52;13.45;;;12.80;85.50;;;;;;5077035;28;20489;-13
2022/04/25 06:47:27;;;;;;;39.08;16.98;;;12.90;85.20;;;;;;5076678;28;20024;-13
2022/04/25 06:49:54;;;;;;;35.25;15.55;;;13.00;85.20;;;;;;5076492;28;20027;-14
2022/04/25 06:52:20;;;;;;;37.63;15.43;;;13.20;83.60;;;;;;5076263;28;20058;-13
2022/04/25 06:54:47;;;;;;;29.48;14.15;;;13.30;84.50;;;;;;5076701;28;20028;-14
2022/04/25 06:57:13;;;;;;;29.45;13.05;;;13.40;83.80;;;;;;5076356;28;20480;-13
2022/04/25 06:59:39;;;;;;;32.90;15.02;;;13.60;82.90;;;;;;5076601;28;20032;-14
2022/04/25 07:02:05;;;;;;;29.52;14.10;;;13.70;83.50;;;;;;5076287;28;20392;-15
2022/04/25 07:04:31;;;;;;;31.50;14.30;;;13.90;82.40;;;;;;5076637;28;20451;-13
2022/04/25 07:06:57;;;;;;;28.98;13.50;;;13.90;82.50;;;;;;5076809;28;20500;-13
2022/04/25 07:09:23;;;;;;;31.52;13.63;;;14.20;82.40;;;;;;5075294;28;20025;-13
2022/04/25 07:11:49;;;;;;;26.95;13.77;;;14.30;81.30;;;;;;5076109;28;20502;-14
2022/04/25 07:14:17;;;;;;;28.17;14.43;;;14.40;81.90;;;;;;5075776;28;20048;-11
2022/04/25 07:16:45;;;;;;;29.33;12.75;;;14.60;80.40;;;;;;5076038;28;20059;-12
2022/04/25 07:19:15;;;;;;;25.95;14.10;;;14.90;79.90;;;;;;5076247;28;20031;-11
2022/04/25 07:29:54;;;;;;;;;;;15.30;77.60;;;;;;5075841;28;20392;-11
2022/04/25 07:32:20;;;;;;;22.05;11.20;;;15.30;75.60;;;;;;5075424;28;20363;-11
2022/04/25 07:34:47;;;;;;;22.80;11.15;;;15.30;76.80;;;;;;5075131;28;20025;-12
2022/04/25 07:37:15;;;;;;;20.52;10.70;;;15.40;76.50;;;;;;5075589;28;20036;-12
2022/04/25 07:39:42;;;;;;;19.20;10.80;;;15.40;75.70;;;;;;5075587;28;20082;-12
2022/04/25 07:42:08;;;;;;;20.52;11.48;;;15.40;76.90;;;;;;5075581;28;20033;-11
2022/04/25 07:44:34;;;;;;;19.90;11.57;;;15.30;76.70;;;;;;5075306;28;20472;-11
2022/04/25 07:47:00;;;;;;;19.00;11.32;;;15.30;75.70;;;;;;5075632;28;20029;-12
2022/04/25 07:49:28;;;;;;;21.90;10.68;;;15.40;76.50;;;;;;5075448;28;20035;-11
2022/04/25 07:51:55;;;;;;;16.70;10.10;;;15.60;76.80;;;;;;5075367;28;20027;-11
2022/04/25 07:54:22;;;;;;;17.95;9.93;;;15.90;76.30;;;;;;5075136;28;20093;-12
2022/04/25 07:56:48;;;;;;;16.08;10.07;;;16.10;75.20;;;;;;5075050;28;20107;-11
2022/04/25 07:59:15;;;;;;;15.68;10.38;;;16.20;74.30;;;;;;5075295;28;20112;-11
2022/04/25 08:01:41;;;;;;;18.20;10.27;;;16.20;72.40;;;;;;5075073;28;20560;-11
2022/04/25 08:04:08;;;;;;;18.63;9.85;;;16.20;73.00;;;;;;5075362;28;20388;-11
2022/04/25 08:06:34;;;;;;;16.65;10.60;;;16.20;72.70;;;;;;5075219;28;20153;-11
2022/04/25 08:09:03;;;;;;;15.13;9.93;;;16.20;72.90;;;;;;5075102;28;20028;-11
2022/04/25 08:11:29;;;;;;;17.70;10.50;;;16.20;71.90;;;;;;5075350;28;20047;-12
2022/04/25 08:19:24;;;;;;;16.95;10.25;;;16.20;71.10;;;;;;5074949;28;20577;-12
2022/04/25 08:21:50;;;;;;;16.00;10.77;;;16.30;71.60;;;;;;5074816;28;20417;-11
2022/04/25 08:24:17;;;;;;;13.30;7.88;;;16.30;71.50;;;;;;5074546;28;20020;-10
2022/04/25 08:26:43;;;;;;;19.38;10.52;;;16.40;71.90;;;;;;5075531;28;20020;-12
2022/04/25 08:29:09;;;;;;;15.55;10.07;;;16.50;70.50;;;;;;5075805;28;20111;-11
2022/04/25 08:31:36;;;;;;;14.65;10.38;;;16.60;70.60;;;;;;5074488;28;20021;-11
2022/04/25 08:34:04;;;;;;;16.08;10.63;;;16.80;70.00;;;;;;5074497;28;20060;-11
2022/04/25 08:36:32;;;;;;;14.88;9.57;;;16.90;69.70;;;;;;5074283;28;20025;-10
2022/04/25 08:38:59;;;;;;;14.60;9.27;;;16.80;70.20;;;;;;5074794;28;20073;-12
2022/04/25 08:41:34;;;;;;;15.50;8.95;;;16.90;70.50;;;;;;5074719;28;20040;-12
2022/04/25 08:44:01;;;;;;;13.57;8.90;;;17.00;69.80;;;;;;5075014;28;20350;-11
2022/04/25 08:46:32;;;;;;;12.57;8.73;;;17.30;70.10;;;;;;5073650;28;20025;-12
2022/04/25 08:49:01;;;;;;;12.35;8.30;;;17.40;69.10;;;;;;5074200;28;20035;-11
2022/04/25 08:51:29;;;;;;;14.18;9.52;;;17.60;69.00;;;;;;5074468;28;20499;-12
2022/04/25 08:53:56;;;;;;;14.88;9.65;;;17.90;67.90;;;;;;5074579;28;20036;-11
2022/04/25 08:56:25;;;;;;;14.50;9.40;;;17.90;66.70;;;;;;5073780;28;20100;-12
2022/04/25 08:58:52;;;;;;;13.93;9.23;;;18.00;66.30;;;;;;5074057;28;20025;-10
2022/04/25 09:01:18;;;;;;;13.80;9.40;;;18.10;66.00;;;;;;5074401;28;20103;-11
2022/04/25 09:03:44;;;;;;;12.85;9.30;;;18.10;65.00;;;;;;5073858;28;20032;-10
2022/04/25 09:06:10;;;;;;;11.75;7.90;;;18.00;64.40;;;;;;5073930;28;20039;-11
2022/04/25 09:08:36;;;;;;;10.88;8.07;;;17.90;66.10;;;;;;5073654;28;20041;-11
2022/04/25 09:13:48;;;;;;;15.13;8.48;;;18.30;66.40;;;;;;5073845;28;20054;-12
2022/04/25 09:16:16;;;;;;;11.70;7.85;;;18.60;63.70;;;;;;5073774;28;20103;-11
2022/04/25 09:18:43;;;;;;;12.00;8.80;;;18.90;64.20;;;;;;5072615;28;20074;-10
2022/04/25 09:21:14;;;;;;;11.48;8.18;;;19.30;62.00;;;;;;5073891;28;20028;-11
2022/04/25 09:23:40;;;;;;;9.68;7.13;;;19.70;61.10;;;;;;5073979;28;20081;-10
2022/04/25 09:26:21;;;;;;;12.88;8.93;;;20.10;60.90;;;;;;5073871;28;20036;-11
2022/04/25 09:28:56;;;;;;;10.40;7.72;;;20.50;58.20;;;;;;5073865;28;20085;-10
2022/04/25 09:31:26;;;;;;;10.10;7.10;;;20.70;56.90;;;;;;5073412;28;20035;-10
2022/04/25 09:33:53;;;;;;;11.27;7.97;;;20.90;57.00;;;;;;5073843;28;20025;-10
2022/04/25 09:36:21;;;;;;;8.65;6.57;;;21.30;56.00;;;;;;5073239;28;20122;-11
2022/04/25 09:38:47;;;;;;;11.68;8.43;;;21.70;55.00;;;;;;5073180;28;20039;-11
2022/04/25 09:41:15;;;;;;;10.48;8.05;;;22.10;53.30;;;;;;5072095;28;20028;-11
2022/04/25 09:43:42;;;;;;;10.45;7.57;;;22.40;51.30;;;;;;5073651;28;20025;-11
2022/04/25 09:46:11;;;;;;;9.38;7.18;;;22.60;50.90;;;;;;5073449;28;20044;-11
2022/04/25 09:48:41;;;;;;;11.80;8.52;;;22.80;51.70;;;;;;5073019;28;20020;-11
2022/04/25 09:51:17;;;;;;;12.40;7.90;;;23.10;52.90;;;;;;5073217;28;20017;-12
2022/04/25 09:53:51;;;;;;;12.43;8.00;;;23.30;51.80;;;;;;5073488;28;20021;-12
2022/04/25 09:56:20;;;;;;;11.25;7.75;;;23.30;50.90;;;;;;5072878;28;20063;-11
2022/04/25 09:59:02;;;;;;;9.63;6.78;;;22.90;51.90;;;;;;5073513;28;20021;-11
2022/04/25 10:01:29;;;;;;;11.20;7.75;;;22.90;51.60;;;;;;5073113;28;20081;-11
2022/04/25 10:03:56;;;;;;;10.73;8.07;;;23.10;52.20;;;;;;5073400;28;20028;-12
2022/04/25 10:06:23;;;;;;;11.32;8.18;;;23.40;50.70;;;;;;5072864;28;20043;-11
2022/04/25 10:08:51;;;;;;;10.20;7.78;;;23.50;51.50;;;;;;5072976;28;20070;-11
2022/04/25 10:11:19;;;;;;;13.02;9.18;;;23.90;51.30;;;;;;5073317;28;20093;-11
2022/04/25 10:13:47;;;;;;;10.20;6.03;;;23.90;47.90;;;;;;5072949;28;20377;-11
2022/04/25 10:16:13;;;;;;;10.48;7.30;;;23.90;50.70;;;;;;5072661;28;20377;-12
2022/04/25 10:18:39;;;;;;;10.15;7.72;;;23.90;50.60;;;;;;5071977;28;20480;-11
2022/04/25 10:21:07;;;;;;;13.18;7.20;;;23.70;48.20;;;;;;5074032;28;20029;-10
2022/04/25 10:23:34;;;;;;;10.23;7.20;;;23.40;50.30;;;;;;5072892;28;20078;-11
2022/04/25 10:26:02;;;;;;;9.35;6.57;;;23.20;51.60;;;;;;5072788;28;20029;-11
2022/04/25 10:28:33;;;;;;;8.60;6.28;;;23.00;52.10;;;;;;5072627;28;20506;-11
2022/04/25 10:31:05;;;;;;;7.35;5.68;;;22.80;51.70;;;;;;5073110;28;20021;-10
2022/04/25 10:33:48;;;;;;;9.13;5.93;;;22.50;52.40;;;;;;5073079;28;20104;-11
2022/04/25 10:36:38;;;;;;;9.73;6.60;;;22.40;52.30;;;;;;5072479;28;20017;-11
2022/04/25 10:39:19;;;;;;;11.00;6.47;;;22.20;52.40;;;;;;5073096;28;20055;-11
2022/04/25 10:44:53;;;;;;;8.43;5.55;;;21.90;52.20;;;;;;5072980;28;20085;-11
2022/04/25 10:47:21;;;;;;;8.68;5.55;;;21.90;53.70;;;;;;5072569;28;20028;-11
2022/04/25 10:49:48;;;;;;;9.82;6.55;;;21.90;54.00;;;;;;5072919;28;20492;-13
2022/04/25 10:52:38;;;;;;;7.72;5.53;;;22.40;53.20;;;;;;5072705;28;20035;-11
2022/04/25 10:55:33;;;;;;;9.90;6.57;;;23.00;49.30;;;;;;5072611;28;20039;-12
2022/04/25 10:58:02;;;;;;;8.65;6.57;;;23.60;48.30;;;;;;5072546;28;20035;-11
2022/04/25 11:00:40;;;;;;;12.35;8.40;;;24.30;48.60;;;;;;5072995;28;20029;-11
2022/04/25 11:03:10;;;;;;;13.05;7.85;;;24.70;46.60;;;;;;5072745;28;20074;-11
2022/04/25 11:05:38;;;;;;;8.68;7.15;;;25.10;46.40;;;;;;5072513;28;20068;-12
2022/04/25 11:08:19;;;;;;;8.88;6.38;;;25.20;46.40;;;;;;5072810;28;20025;-11
2022/04/25 11:11:05;;;;;;;9.82;7.30;;;25.30;44.30;;;;;;5074420;28;20120;-12
2022/04/25 11:13:49;;;;;;;12.18;7.40;;;25.10;45.60;;;;;;5075896;28;20084;-12
2022/04/25 11:16:19;;;;;;;10.63;7.15;;;25.40;45.30;;;;;;5076040;28;20024;-11
2022/04/25 11:18:45;;;;;;;8.55;5.78;;;25.70;44.20;;;;;;5075920;28;20081;-12
2022/04/25 11:21:14;;;;;;;7.70;6.05;;;25.60;45.30;;;;;;5075981;28;20034;-12
2022/04/25 11:23:47;;;;;;;9.65;6.80;;;25.40;45.40;;;;;;5075898;28;20033;-11
2022/04/25 11:26:22;;;;;;;10.02;5.82;;;25.40;44.70;;;;;;5075703;28;20024;-12
2022/04/25 11:29:04;;;;;;;8.40;5.20;;;25.70;44.40;;;;;;5075836;28;20050;-12
2022/04/25 11:31:34;;;;;;;9.57;6.65;;;26.40;43.00;;;;;;5075825;28;20036;-11
2022/04/25 11:34:02;;;;;;;8.30;5.97;;;27.00;42.00;;;;;;5076459;28;20036;-12
2022/04/25 11:36:30;;;;;;;8.38;5.13;;;27.40;41.00;;;;;;5075804;28;20027;-11
2022/04/25 11:41:43;;;;;;;6.57;4.85;;;27.60;41.60;;;;;;5075961;28;20507;-11
2022/04/25 11:44:09;;;;;;;7.95;5.75;;;27.70;42.10;;;;;;5075893;28;20028;-12
2022/04/25 11:46:36;;;;;;;6.70;5.22;;;27.90;41.40;;;;;;5075272;28;20047;-12
2022/04/25 11:49:05;;;;;;;8.07;5.93;;;28.00;41.00;;;;;;5075793;28;20028;-11
2022/04/25 11:51:40;;;;;;;8.73;5.88;;;28.30;39.10;;;;;;5075714;28;20457;-12
2022/04/25 11:54:10;;;;;;;7.57;5.45;;;28.50;39.60;;;;;;5075764;28;20076;-12
2022/04/25 11:56:40;;;;;;;7.28;4.57;;;28.30;39.40;;;;;;5075361;28;20064;-11
2022/04/25 11:59:15;;;;;;;6.13;4.22;;;28.40;39.60;;;;;;5075268;28;20435;-12
2022/04/25 12:01:46;;;;;;;4.70;3.67;;;28.80;38.10;;;;;;5075477;28;20111;-12
2022/04/25 12:04:22;;;;;;;5.35;3.97;;;29.40;37.50;;;;;;5075031;28;20107;-11
2022/04/25 12:06:52;;;;;;;7.25;5.70;;;29.80;37.30;;;;;;5075182;28;20028;-11
2022/04/25 12:17:41;;;;;;;5.90;3.70;;;28.40;37.90;;;;;;5075195;28;20039;-12
2022/04/25 12:20:10;;;;;;;6.75;4.03;;;28.00;38.80;;;;;;5074891;28;20497;-12
2022/04/25 12:22:50;;;;;;;4.93;4.22;;;28.10;38.80;;;;;;5074612;28;20496;-12
2022/04/25 12:25:23;;;;;;;8.30;5.40;;;28.50;38.40;;;;;;5075316;28;20044;-13
2022/04/25 12:28:15;;;;;;;5.90;4.40;;;29.20;37.60;;;;;;5075004;28;20039;-12
2022/04/25 12:30:44;;;;;;;3.97;3.33;;;29.50;36.70;;;;;;5074626;28;20271;-12
2022/04/25 12:33:13;;;;;;;5.72;4.32;;;29.50;36.50;;;;;;5073212;28;20033;-12
2022/04/25 12:35:39;;;;;;;6.07;4.43;;;29.20;37.20;;;;;;5074534;28;20392;-12
2022/04/25 12:38:07;;;;;;;6.30;3.90;;;28.60;37.70;;;;;;5074792;28;20033;-11
2022/04/25 12:40:54;;;;;;;7.38;5.07;;;27.70;38.80;;;;;;5074834;28;20028;-12
2022/04/25 12:43:38;;;;;;;7.57;5.07;;;26.90;40.40;;;;;;5074481;28;20021;-11
2022/04/25 12:46:14;;;;;;;7.45;5.20;;;26.20;40.40;;;;;;5074666;28;20028;-12
2022/04/25 12:49:01;;;;;;;5.75;4.40;;;25.20;41.10;;;;;;5074531;28;20028;-12
2022/04/25 12:51:31;;;;;;;7.93;5.15;;;24.40;41.30;;;;;;5074242;28;20029;-12
2022/04/25 12:53:57;;;;;;;6.13;4.43;;;24.00;44.40;;;;;;5074799;28;20025;-12
2022/04/25 12:56:29;;;;;;;8.73;5.68;;;23.80;44.90;;;;;;5073874;28;20021;-13
2022/04/25 12:58:56;;;;;;;5.82;4.30;;;23.60;45.00;;;;;;5074154;28;20024;-12
2022/04/25 13:01:36;;;;;;;6.20;4.47;;;23.50;46.00;;;;;;5074115;28;20028;-13
2022/04/25 13:04:17;;;;;;;4.53;3.67;;;23.60;45.70;;;;;;5073953;28;20395;-12
2022/04/25 13:06:43;;;;;;;5.68;4.20;;;23.50;44.70;;;;;;5073936;28;20063;-12
2022/04/25 13:09:12;;;;;;;5.65;4.70;;;23.60;46.00;;;;;;5074158;28;20115;-12
2022/04/25 13:11:38;;;;;;;5.40;3.80;;;23.50;45.60;;;;;;5073819;28;20146;-13
2022/04/25 13:14:05;;;;;;;6.00;3.65;;;23.50;45.70;;;;;;5073584;28;20401;-13
2022/04/25 13:16:32;;;;;;;6.70;4.97;;;23.50;45.80;;;;;;5073822;28;20032;-12
2022/04/25 13:18:58;;;;;;;6.30;4.18;;;23.40;45.10;;;;;;5073632;28;20055;-12
2022/04/25 13:21:25;;;;;;;8.25;5.70;;;23.40;45.90;;;;;;5072573;28;20093;-13
2022/04/25 13:23:52;;;;;;;10.70;6.57;;;23.30;46.30;;;;;;5073905;28;20067;-13
2022/04/25 13:26:19;;;;;;;9.85;6.63;;;23.20;46.00;;;;;;5073497;28;20032;-13